Letňany Airfield

LKLT · Hlavní město Praha, Czechia

METAR history LKLT · Letňany Airfield

Below you see METARs of the last few days. Select a year to browse through older METARs, from the year 2007 onwards.

April 14, 2024

Time Code Weather Temp. Visibility Ceiling Wind METAR/SPECI
20:00
V
18 °C 10 km+ - 320° 320° 6 kt METAR LKKB 141800Z 32006KT CAVOK 18/10 Q1016 NOSIG
19:00
V
20 °C 10 km+ - 330° 330° 4 kt METAR LKKB 141700Z 33004KT 300V020 CAVOK 20/10 Q1016 NOSIG
18:00
V
21 °C 10 km+ - 330° 330° 8 kt METAR LKKB 141600Z 33008KT 300V360 CAVOK 21/10 Q1016 NOSIG
17:00
V
23 °C 10 km+ - 260° 260° 17 kt METAR LKKB 141500Z 26017KT CAVOK 23/06 Q1016 NOSIG
16:00
V
23 °C 10 km+ - 280° 280° 14 kt METAR LKKB 141400Z 28014KT 240V300 CAVOK 23/07 Q1016 NOSIG
15:00
V
23 °C 10 km+ - 280° 280° 17 kt METAR LKKB 141300Z 28017KT CAVOK 23/06 Q1017 NOSIG
14:00
V
24 °C 10 km+ - 260° 260° 13 kt METAR LKKB 141200Z 26013KT CAVOK 24/07 Q1017 NOSIG
13:00
V
22 °C 10 km+ - 260° 260° 11 kt METAR LKKB 141100Z 26011KT 9999 FEW044 SCT250 22/10 Q1018 NOSIG
12:00
V
21 °C 10 km+ 25,000 ft 250° 250° 15 kt METAR LKKB 141000Z 25015KT 9999 FEW033 BKN250 21/10 Q1019 NOSIG
11:00
V
20 °C 10 km+ - 230° 230° 13 kt METAR LKKB 140900Z 23013KT CAVOK 20/12 Q1019 NOSIG
10:00
V
19 °C 10 km+ - 230° 230° 12 kt METAR LKKB 140800Z 23012KT CAVOK 19/11 Q1019 NOSIG
09:00
V
17 °C 10 km+ - 230° 230° 13 kt METAR LKKB 140700Z 23013KT CAVOK 17/10 Q1019 NOSIG
08:00
V
15 °C 10 km+ - 220° 220° 11 kt METAR LKKB 140600Z 22011KT CAVOK 15/09 Q1019 NOSIG
07:00
V
13 °C 10 km+ - 220° 220° 9 kt METAR LKKB 140500Z 22009KT CAVOK 13/09 Q1018 NOSIG
06:00
V
13 °C 10 km+ - 190° 190° 9 kt METAR LKKB 140400Z 19009KT CAVOK 13/09 Q1018 NOSIG
05:00
V
13 °C 10 km+ - 190° 190° 8 kt METAR LKKB 140300Z 19008KT CAVOK 13/08 Q1019
04:00
V
12 °C 10 km+ - 200° 200° 6 kt METAR LKKB 140200Z 20006KT CAVOK 12/08 Q1019
03:00
V
14 °C 10 km+ - 190° 190° 9 kt METAR LKKB 140100Z 19009KT CAVOK 14/09 Q1020
02:00
V
15 °C 10 km+ - 190° 190° 10 kt METAR LKKB 140000Z 19010KT CAVOK 15/09 Q1020
01:00
V
15 °C 10 km+ - 190° 190° 8 kt METAR LKKB 132300Z 19008KT CAVOK 15/09 Q1021
00:00
V
15 °C 10 km+ - 180° 180° 7 kt METAR LKKB 132200Z 18007KT CAVOK 15/10 Q1021

April 13, 2024

Time Code Weather Temp. Visibility Ceiling Wind METAR/SPECI
23:00
V
16 °C 10 km+ - 190° 190° 7 kt METAR LKKB 132100Z 19007KT CAVOK 16/10 Q1022
22:00
V
17 °C 10 km+ - 200° 200° 5 kt METAR LKKB 132000Z 20005KT CAVOK 17/09 Q1022 NOSIG
21:00
V
18 °C 10 km+ - 200° 200° 7 kt METAR LKKB 131900Z 20007KT CAVOK 18/10 Q1023 NOSIG
20:00
V
19 °C 10 km+ - 200° 200° 6 kt METAR LKKB 131800Z 20006KT CAVOK 19/10 Q1023 NOSIG
19:00
V
21 °C 10 km+ - 210° 210° 8 kt METAR LKKB 131700Z 21008KT CAVOK 21/10 Q1023 NOSIG
18:00
V
21 °C 10 km+ - 230° 230° 9 kt METAR LKKB 131600Z 23009KT CAVOK 21/10 Q1023 NOSIG
17:00
V
22 °C 10 km+ - 240° 240° 8 kt METAR LKKB 131500Z 24008KT CAVOK 22/10 Q1024 NOSIG
16:00
V
22 °C 10 km+ - 240° 240° 9 kt METAR LKKB 131400Z 24009KT 200V280 CAVOK 22/09 Q1025 NOSIG
15:00
V
22 °C 10 km+ - 260° 260° 10 kt METAR LKKB 131300Z 26010KT CAVOK 22/09 Q1025 NOSIG
14:00
V
21 °C 10 km+ - 250° 250° 8 kt METAR LKKB 131200Z 25008KT 210V280 9999 FEW048 SCT250 21/09 Q1026 NOSIG
13:00
V
20 °C 10 km+ 25,000 ft 250° 250° 9 kt METAR LKKB 131100Z 25009KT 220V290 9999 SCT044 BKN250 20/10 Q1027 NOSIG
12:00
V
19 °C 10 km+ 3,500 ft 280° 280° 7 kt METAR LKKB 131000Z 28007KT 220V320 9999 SCT038 BKN035 19/09 Q1028 NOSIG
11:00
V
18 °C 10 km+ - 240° 240° 6 kt METAR LKKB 130900Z 24006KT 210V270 CAVOK 18/10 Q1028 NOSIG
10:00
V
16 °C 10 km+ - 230° 230° 6 kt METAR LKKB 130800Z 23006KT CAVOK 16/09 Q1028 NOSIG
09:00
V
14 °C 10 km+ - 220° 220° 6 kt METAR LKKB 130700Z 22006KT CAVOK 14/08 Q1028 NOSIG
08:00
V
12 °C 10 km+ - 200° 200° 5 kt METAR LKKB 130600Z 20005KT CAVOK 12/07 Q1028 NOSIG
07:00
V
10 °C 10 km+ - 190° 190° 6 kt METAR LKKB 130500Z 19006KT CAVOK 10/06 Q1028 NOSIG
06:00
V
9 °C 10 km+ - 190° 190° 4 kt METAR LKKB 130400Z 19004KT CAVOK 09/06 Q1028 NOSIG
05:00
V
9 °C 10 km+ - 190° 190° 5 kt METAR LKKB 130300Z 19005KT CAVOK 09/06 Q1028
04:00
V
11 °C 10 km+ - 210° 210° 5 kt METAR LKKB 130200Z 21005KT CAVOK 11/06 Q1028
03:00
V
9 °C 10 km+ - 200° 200° 5 kt METAR LKKB 130100Z 20005KT CAVOK 09/06 Q1028
02:00
V
11 °C 10 km+ - 220° 220° 6 kt METAR LKKB 130000Z 22006KT CAVOK 11/05 Q1028
01:00
V
13 °C 10 km+ - 210° 210° 5 kt METAR LKKB 122300Z 21005KT CAVOK 13/05 Q1028
00:00
V
13 °C 10 km+ - 220° 220° 8 kt METAR LKKB 122200Z 22008KT CAVOK 13/06 Q1028

April 12, 2024

Time Code Weather Temp. Visibility Ceiling Wind METAR/SPECI
23:00
V
14 °C 10 km+ - 220° 220° 8 kt METAR LKKB 122100Z 22008KT CAVOK 14/05 Q1028 NOSIG
22:00
V
14 °C 10 km+ - 200° 200° 7 kt METAR LKKB 122000Z 20007KT CAVOK 14/05 Q1028 NOSIG
21:00
V
16 °C 10 km+ - 190° 190° 6 kt METAR LKKB 121900Z 19006KT CAVOK 16/05 Q1028 NOSIG
20:00
V
17 °C 10 km+ - 230° 230° 5 kt METAR LKKB 121800Z 23005KT CAVOK 17/05 Q1028 NOSIG
19:00
V
19 °C 10 km+ - 240° 240° 6 kt METAR LKKB 121700Z 24006KT CAVOK 19/06 Q1028 NOSIG
18:00
V
21 °C 10 km+ - 250° 250° 8 kt METAR LKKB 121600Z 25008KT CAVOK 21/04 Q1028 NOSIG
17:00
V
21 °C 10 km+ - 270° 270° 9 kt METAR LKKB 121500Z 27009KT CAVOK 21/03 Q1029 NOSIG
16:00
V
21 °C 10 km+ - 220° 220° 9 kt METAR LKKB 121400Z 22009KT 180V250 CAVOK 21/03 Q1029 NOSIG
15:00
V
21 °C 10 km+ - 220° 220° 8 kt METAR LKKB 121300Z 22008KT 200V260 CAVOK 21/05 Q1030 NOSIG
14:00
V
19 °C 10 km+ - 240° 240° 7 kt METAR LKKB 121200Z 24007KT 190V270 CAVOK 19/06 Q1031 NOSIG
13:00
V
19 °C 10 km+ - 230° 230° 5 kt METAR LKKB 121100Z 23005KT 170V290 CAVOK 19/06 Q1032 NOSIG
12:00
V
17 °C 10 km+ - 240° 240° 4 kt METAR LKKB 121000Z 24004KT 200V300 CAVOK 17/06 Q1032 NOSIG
11:00
V
15 °C 10 km+ - 220° 220° 3 kt METAR LKKB 120900Z 22003KT 170V260 CAVOK 15/06 Q1032 NOSIG
10:00
V
13 °C 10 km+ - 220° 220° 4 kt METAR LKKB 120800Z 22004KT 170V260 CAVOK 13/06 Q1032 NOSIG
09:00
V
11 °C 10 km+ - 220° 220° 5 kt METAR LKKB 120700Z 22005KT 190V250 CAVOK 11/06 Q1033 NOSIG
08:00
V
9 °C 10 km+ - 190° 190° 6 kt METAR LKKB 120600Z 19006KT CAVOK 09/06 Q1032 NOSIG
Report a change